createdAt,value
2023-03-11T00:00:47.393Z,31.63
2023-03-11T00:03:17.000Z,30.43
2023-03-11T00:05:46.559Z,36.43
2023-03-11T00:08:17.803Z,34.47
2023-03-11T00:10:47.913Z,30.17
2023-03-11T00:13:16.604Z,30.53
2023-03-11T00:15:49.675Z,28.77
2023-03-11T00:18:17.946Z,33.00
2023-03-11T00:20:47.016Z,29.97
2023-03-11T00:23:15.227Z,34.27
2023-03-11T00:25:45.293Z,32.67
2023-03-11T00:28:13.496Z,32.53
2023-03-11T00:30:42.492Z,27.83
2023-03-11T00:33:12.425Z,30.90
2023-03-11T00:35:39.608Z,28.63
2023-03-11T00:38:09.206Z,27.53
2023-03-11T00:40:41.715Z,33.37
2023-03-11T00:43:08.855Z,26.97
2023-03-11T00:45:35.985Z,29.67
2023-03-11T00:48:03.644Z,29.47
2023-03-11T00:50:34.694Z,26.97
2023-03-11T00:53:04.296Z,27.23
2023-03-11T00:55:34.657Z,27.73
2023-03-11T00:58:05.787Z,28.20
2023-03-11T01:00:33.829Z,26.43
2023-03-11T01:03:01.063Z,24.47
2023-03-11T01:05:33.799Z,25.47
2023-03-11T01:08:01.369Z,26.97
2023-03-11T01:10:30.987Z,30.30
2023-03-11T01:12:58.299Z,28.63
2023-03-11T01:15:32.023Z,24.93
2023-03-11T01:17:59.216Z,24.53
2023-03-11T01:20:26.887Z,26.33
2023-03-11T01:22:54.140Z,27.57
2023-03-11T01:25:23.742Z,27.07
2023-03-11T01:27:51.328Z,27.97
2023-03-11T01:30:22.918Z,26.53
2023-03-11T01:32:51.367Z,31.13
2023-03-11T01:35:21.446Z,22.50
2023-03-11T01:37:48.514Z,25.17
2023-03-11T01:40:39.222Z,25.77
2023-03-11T01:43:36.967Z,27.23
2023-03-11T01:46:37.570Z,29.13
2023-03-11T01:49:06.279Z,26.17
2023-03-11T01:51:42.801Z,24.97
2023-03-11T01:54:22.036Z,25.07
2023-03-11T01:56:50.744Z,24.00
2023-03-11T01:59:26.164Z,24.97
2023-03-11T02:02:28.179Z,24.00
2023-03-11T02:04:55.768Z,26.23
2023-03-11T02:07:22.946Z,22.37
2023-03-11T02:09:50.002Z,22.63
2023-03-11T02:12:17.619Z,22.27
2023-03-11T02:14:49.295Z,23.23
2023-03-11T02:17:17.040Z,22.93
2023-03-11T02:20:06.334Z,21.43
2023-03-11T02:22:34.939Z,24.90
2023-03-11T02:25:27.260Z,23.37
2023-03-11T02:27:55.719Z,22.80
2023-03-11T02:30:25.848Z,23.23
2023-03-11T02:32:53.492Z,21.83
2023-03-11T02:35:21.628Z,22.57
2023-03-11T02:37:52.676Z,19.53
2023-03-11T02:40:26.961Z,20.60
2023-03-11T02:43:01.619Z,17.67
2023-03-11T02:45:31.868Z,17.00
2023-03-11T02:48:00.621Z,18.13
2023-03-11T02:50:30.336Z,20.60
2023-03-11T02:52:57.377Z,19.47
2023-03-11T02:55:24.485Z,19.13
2023-03-11T02:57:51.457Z,17.30
2023-03-11T03:00:19.291Z,20.47
2023-03-11T03:02:47.117Z,15.83
2023-03-11T03:05:14.145Z,14.47
2023-03-11T03:07:41.121Z,18.73
2023-03-11T03:10:09.648Z,15.90
2023-03-11T03:12:36.829Z,16.53
2023-03-11T03:15:04.595Z,18.40
2023-03-11T03:17:31.662Z,17.07
2023-03-11T03:19:58.743Z,13.90
2023-03-11T03:22:27.609Z,16.23
2023-03-11T03:24:54.635Z,13.60
2023-03-11T03:27:21.700Z,17.80
2023-03-11T03:29:48.760Z,13.60
2023-03-11T03:32:15.796Z,11.90
2023-03-11T03:34:42.778Z,13.87
2023-03-11T03:37:09.812Z,14.80
2023-03-11T03:39:36.836Z,12.57
2023-03-11T03:42:04.037Z,14.43
2023-03-11T03:44:31.084Z,12.50
2023-03-11T03:46:58.090Z,13.43
2023-03-11T03:49:25.103Z,12.90
2023-03-11T03:51:52.176Z,10.87
2023-03-11T03:54:19.299Z,12.13
2023-03-11T03:56:46.313Z,11.87
2023-03-11T03:59:13.776Z,14.13
2023-03-11T04:01:40.760Z,11.10
2023-03-11T04:04:07.727Z,14.17
2023-03-11T04:06:34.796Z,13.03
2023-03-11T04:09:01.892Z,14.03
2023-03-11T04:11:28.878Z,11.07
2023-03-11T04:13:55.893Z,13.97
2023-03-11T04:16:24.670Z,14.13
2023-03-11T04:18:51.946Z,15.17
2023-03-11T04:21:19.425Z,17.87
2023-03-11T04:23:46.500Z,14.13
2023-03-11T04:26:13.654Z,12.70
2023-03-11T04:28:40.659Z,15.67
2023-03-11T04:31:08.270Z,15.23
2023-03-11T04:33:35.305Z,13.50
2023-03-11T04:36:08.095Z,12.00
2023-03-11T04:38:35.677Z,13.70
2023-03-11T04:41:07.389Z,15.13
2023-03-11T04:43:35.145Z,11.87
2023-03-11T04:46:02.206Z,14.50
2023-03-11T04:48:29.235Z,11.40
2023-03-11T04:50:56.621Z,13.53
2023-03-11T04:53:24.573Z,12.43
2023-03-11T04:55:52.458Z,14.37
2023-03-11T04:58:20.230Z,11.97
2023-03-11T05:00:47.318Z,12.23
2023-03-11T05:03:14.484Z,9.10
2023-03-11T05:05:41.576Z,9.37
2023-03-11T05:08:08.727Z,10.90
2023-03-11T05:10:36.789Z,12.07
2023-03-11T05:13:03.857Z,12.37
2023-03-11T05:15:31.584Z,11.00
2023-03-11T05:17:58.706Z,10.77
2023-03-11T05:20:25.753Z,9.43
2023-03-11T05:22:52.807Z,12.40
2023-03-11T05:25:19.824Z,11.47
2023-03-11T05:27:46.864Z,8.07
2023-03-11T05:30:15.363Z,10.20
2023-03-11T05:32:42.419Z,10.37
2023-03-11T05:35:09.780Z,11.43
2023-03-11T05:37:39.183Z,10.53
2023-03-11T05:40:08.219Z,11.33
2023-03-11T05:42:35.489Z,9.30
2023-03-11T05:45:02.455Z,10.87
2023-03-11T05:47:29.487Z,7.73
2023-03-11T05:49:56.701Z,9.43
2023-03-11T05:52:23.689Z,7.20
2023-03-11T05:54:52.300Z,10.23
2023-03-11T05:57:20.013Z,7.00
2023-03-11T05:59:47.171Z,9.73
2023-03-11T06:02:14.203Z,7.23
2023-03-11T06:04:41.340Z,7.70
2023-03-11T06:07:08.483Z,6.57
2023-03-11T06:09:38.532Z,8.40
2023-03-11T06:12:06.373Z,7.83
2023-03-11T06:14:33.419Z,7.97
2023-03-11T06:17:00.466Z,6.53
2023-03-11T06:19:27.446Z,8.43
2023-03-11T06:21:54.492Z,10.00
2023-03-11T06:24:21.472Z,9.43
2023-03-11T06:26:52.763Z,11.50
2023-03-11T06:29:21.876Z,8.37
2023-03-11T06:31:48.992Z,11.50
2023-03-11T06:34:16.120Z,7.80
2023-03-11T06:36:43.245Z,8.20
2023-03-11T06:39:14.717Z,7.10
2023-03-11T06:41:42.821Z,7.33
2023-03-11T06:44:12.699Z,8.50
2023-03-11T06:46:40.463Z,5.90
2023-03-11T06:49:07.579Z,9.27
2023-03-11T06:51:35.058Z,7.30
2023-03-11T06:54:02.089Z,6.43
2023-03-11T06:56:29.188Z,6.37
2023-03-11T06:58:56.261Z,6.87
2023-03-11T07:01:25.965Z,7.37
2023-03-11T07:03:53.423Z,7.20
2023-03-11T07:06:24.366Z,7.83
2023-03-11T07:08:52.995Z,7.80
2023-03-11T07:11:23.368Z,8.47
2023-03-11T07:13:51.309Z,7.80
2023-03-11T07:16:24.764Z,8.37
2023-03-11T07:18:53.302Z,7.70
2023-03-11T07:21:22.732Z,8.27
2023-03-11T07:23:57.252Z,8.03
2023-03-11T07:26:25.437Z,8.07
2023-03-11T07:28:54.415Z,10.57
2023-03-11T07:31:28.316Z,10.03
2023-03-11T07:33:59.458Z,10.03
2023-03-11T07:36:28.657Z,8.83
2023-03-11T07:39:04.259Z,8.23
2023-03-11T07:41:34.342Z,8.90
2023-03-11T07:44:03.909Z,8.93
2023-03-11T07:46:31.560Z,10.77
2023-03-11T07:48:58.917Z,9.50
2023-03-11T07:51:29.832Z,9.93
2023-03-11T07:53:59.187Z,9.40
2023-03-11T07:56:30.232Z,10.77
2023-03-11T07:59:02.731Z,8.50
2023-03-11T08:01:36.370Z,9.20
2023-03-11T08:04:09.637Z,10.17
2023-03-11T08:06:37.895Z,9.93
2023-03-11T08:09:10.167Z,10.57
2023-03-11T08:11:38.119Z,10.70
2023-03-11T08:14:05.993Z,10.20
2023-03-11T08:16:33.704Z,9.33
2023-03-11T08:19:00.817Z,13.03
2023-03-11T08:21:32.167Z,14.10
2023-03-11T08:24:02.616Z,8.53
2023-03-11T08:26:31.227Z,12.30
2023-03-11T08:28:59.042Z,11.27
2023-03-11T08:31:30.380Z,10.27
2023-03-11T08:34:08.575Z,11.80
2023-03-11T08:36:35.833Z,9.77
2023-03-11T08:39:03.658Z,10.63
2023-03-11T08:41:30.823Z,10.03
2023-03-11T08:43:58.116Z,10.17
2023-03-11T08:46:30.885Z,16.03
2023-03-11T08:49:01.077Z,11.03
2023-03-11T08:51:30.071Z,10.97
2023-03-11T08:53:57.677Z,11.03
2023-03-11T08:56:25.163Z,10.43
2023-03-11T08:58:52.837Z,11.83
2023-03-11T09:01:23.836Z,11.50
2023-03-11T09:03:51.347Z,11.23
2023-03-11T09:06:18.902Z,11.93
2023-03-11T09:08:46.826Z,12.37
2023-03-11T09:11:15.799Z,13.53
2023-03-11T09:13:43.781Z,15.23
2023-03-11T09:16:24.619Z,15.40
2023-03-11T09:18:51.782Z,17.07
2023-03-11T09:21:18.887Z,19.53
2023-03-11T09:23:46.486Z,16.10
2023-03-11T09:26:13.854Z,19.43
2023-03-11T09:28:42.376Z,19.47
2023-03-11T09:31:09.911Z,22.43
2023-03-11T09:33:40.519Z,23.87
2023-03-11T09:36:13.053Z,25.77
2023-03-11T09:38:40.274Z,22.10
2023-03-11T09:41:29.624Z,24.17
2023-03-11T09:44:37.671Z,23.13
2023-03-11T09:47:57.837Z,25.83
2023-03-11T09:50:33.880Z,28.93
2023-03-11T09:53:34.089Z,26.67
2023-03-11T09:56:06.209Z,21.77
2023-03-11T09:58:52.797Z,22.67
2023-03-11T10:01:44.874Z,19.77
2023-03-11T10:04:27.033Z,18.10
2023-03-11T10:06:54.715Z,14.80
2023-03-11T10:09:56.729Z,16.13
2023-03-11T10:12:51.713Z,15.17
2023-03-11T10:15:59.903Z,13.57
2023-03-11T10:18:43.029Z,12.33
2023-03-11T10:21:44.957Z,10.47
2023-03-11T10:24:55.639Z,10.13
2023-03-11T10:27:51.515Z,9.97
2023-03-11T10:30:36.373Z,11.33
2023-03-11T10:33:33.931Z,9.43
2023-03-11T10:36:08.911Z,7.50
2023-03-11T10:38:49.052Z,8.13
2023-03-11T10:41:51.086Z,7.30
2023-03-11T10:44:34.757Z,6.80
2023-03-11T10:47:02.504Z,6.70
2023-03-11T10:49:30.690Z,8.33
2023-03-11T10:51:58.239Z,6.50
2023-03-11T10:54:46.271Z,5.37
2023-03-11T10:57:48.932Z,7.50
2023-03-11T11:00:31.496Z,5.57
2023-03-11T11:02:59.913Z,5.93
2023-03-11T11:05:34.170Z,5.43
2023-03-11T11:08:13.173Z,4.63
2023-03-11T11:10:55.534Z,5.40
2023-03-11T11:13:34.477Z,4.03
2023-03-11T11:16:20.996Z,3.90
2023-03-11T11:18:57.057Z,5.20
2023-03-11T11:21:38.299Z,7.30
2023-03-11T11:24:31.581Z,3.50
2023-03-11T11:27:29.364Z,5.50
2023-03-11T11:30:11.273Z,3.50
2023-03-11T11:32:38.811Z,3.30
2023-03-11T11:35:15.805Z,3.70
2023-03-11T11:37:48.719Z,3.67
2023-03-11T11:40:15.922Z,4.07
2023-03-11T11:43:12.538Z,3.23
2023-03-11T11:45:44.391Z,3.23
2023-03-11T11:48:41.390Z,3.90
2023-03-11T11:51:36.652Z,3.10
2023-03-11T11:54:34.459Z,3.93
2023-03-11T11:57:10.376Z,4.20
2023-03-11T11:59:37.583Z,3.57
2023-03-11T12:02:07.686Z,4.57
2023-03-11T12:04:48.565Z,4.30
2023-03-11T12:07:46.298Z,4.80
2023-03-11T12:10:23.900Z,3.80
2023-03-11T12:13:11.675Z,4.87
2023-03-11T12:16:14.238Z,5.27
2023-03-11T12:18:54.455Z,4.77
2023-03-11T12:21:58.421Z,6.93
2023-03-11T12:24:40.301Z,5.10
2023-03-11T12:27:34.478Z,5.33
2023-03-11T12:30:16.704Z,4.97
2023-03-11T12:32:56.382Z,5.60
2023-03-11T12:35:36.049Z,6.53
2023-03-11T12:38:31.325Z,6.20
2023-03-11T12:41:06.321Z,5.60
2023-03-11T12:43:35.863Z,5.90
2023-03-11T12:46:06.091Z,6.17
2023-03-11T12:48:50.981Z,5.07
2023-03-11T12:51:27.129Z,6.03
2023-03-11T12:53:55.926Z,4.73
2023-03-11T12:56:45.293Z,6.03
2023-03-11T12:59:20.957Z,7.57
2023-03-11T13:01:53.743Z,9.67
2023-03-11T13:04:48.781Z,5.70
2023-03-11T13:07:51.562Z,5.97
2023-03-11T13:10:41.639Z,5.57
2023-03-11T13:13:40.727Z,10.17
2023-03-11T13:16:14.394Z,4.97
2023-03-11T13:18:44.496Z,6.53
2023-03-11T13:21:32.581Z,7.33
2023-03-11T13:24:22.109Z,7.57
2023-03-11T13:27:02.245Z,5.30
2023-03-11T13:30:10.425Z,6.80
2023-03-11T13:33:16.661Z,3.93
2023-03-11T13:36:10.793Z,5.30
2023-03-11T13:39:28.373Z,8.30
2023-03-11T13:41:56.072Z,5.07
2023-03-11T13:44:31.852Z,6.47
2023-03-11T13:47:13.915Z,5.30
2023-03-11T13:50:07.626Z,4.63
2023-03-11T13:52:47.514Z,7.17
2023-03-11T13:55:43.151Z,5.60
2023-03-11T13:58:26.201Z,5.30
2023-03-11T14:01:02.032Z,6.90
2023-03-11T14:03:40.597Z,6.23
2023-03-11T14:06:18.072Z,4.87
2023-03-11T14:08:57.728Z,6.63
2023-03-11T14:11:29.743Z,6.07
2023-03-11T14:13:56.997Z,5.90
2023-03-11T14:16:36.045Z,6.77
2023-03-11T14:19:19.273Z,6.07
2023-03-11T14:21:54.865Z,6.83
2023-03-11T14:24:31.276Z,6.80
2023-03-11T14:27:02.061Z,5.97
2023-03-11T14:29:36.709Z,8.00
2023-03-11T14:32:28.486Z,7.03
2023-03-11T14:34:55.896Z,5.50
2023-03-11T14:37:38.622Z,6.80
2023-03-11T14:40:37.770Z,9.83
2023-03-11T14:43:08.213Z,10.77
2023-03-11T14:45:42.028Z,6.73
2023-03-11T14:48:30.663Z,9.37
2023-03-11T14:51:01.294Z,4.77
2023-03-11T14:54:02.436Z,7.63
2023-03-11T14:56:32.664Z,9.07
2023-03-11T14:59:15.268Z,6.73
2023-03-11T15:01:46.668Z,5.23
2023-03-11T15:04:38.172Z,8.97
2023-03-11T15:07:08.440Z,7.60
2023-03-11T15:09:41.074Z,7.97
2023-03-11T15:12:28.553Z,7.37
2023-03-11T15:14:55.690Z,5.23
2023-03-11T15:17:34.718Z,5.07
2023-03-11T15:20:07.592Z,8.47
2023-03-11T15:22:41.361Z,5.37
2023-03-11T15:25:18.462Z,7.87
2023-03-11T15:27:46.408Z,6.87
2023-03-11T15:30:27.342Z,4.93
2023-03-11T15:32:55.615Z,6.07
2023-03-11T15:35:28.273Z,5.83
2023-03-11T15:38:26.354Z,5.30
2023-03-11T15:41:01.142Z,4.90
2023-03-11T15:43:34.597Z,5.53
2023-03-11T15:46:03.540Z,5.07
2023-03-11T15:48:31.379Z,4.77
2023-03-11T15:51:00.578Z,5.03
2023-03-11T15:53:30.267Z,5.30
2023-03-11T15:56:12.423Z,4.93
2023-03-11T15:58:39.508Z,6.40
2023-03-11T16:01:06.641Z,4.93
2023-03-11T16:03:33.710Z,5.20
2023-03-11T16:06:00.700Z,8.23
2023-03-11T16:08:27.721Z,8.47
2023-03-11T16:10:55.268Z,7.70
2023-03-11T16:13:23.437Z,4.90
2023-03-11T16:15:50.450Z,4.30
2023-03-11T16:18:17.570Z,3.93
2023-03-11T16:20:50.543Z,5.90
2023-03-11T16:23:26.183Z,4.77
2023-03-11T16:26:04.114Z,5.60
2023-03-11T16:28:31.552Z,5.70
2023-03-11T16:30:58.673Z,4.90
2023-03-11T16:33:26.081Z,5.37
2023-03-11T16:35:53.195Z,3.33
2023-03-11T16:38:23.068Z,7.93
2023-03-11T16:41:02.216Z,4.63
2023-03-11T16:43:31.749Z,4.03
2023-03-11T16:45:58.783Z,4.13
2023-03-11T16:48:26.224Z,5.17
2023-03-11T16:50:53.264Z,7.03
2023-03-11T16:53:20.541Z,4.97
2023-03-11T16:55:48.949Z,7.67
2023-03-11T16:58:16.054Z,5.60
2023-03-11T17:00:43.478Z,9.13
2023-03-11T17:03:18.221Z,5.73
2023-03-11T17:05:48.446Z,7.37
2023-03-11T17:08:18.153Z,6.03
2023-03-11T17:10:46.474Z,5.63
2023-03-11T17:13:17.104Z,5.30
2023-03-11T17:15:45.875Z,5.90
2023-03-11T17:18:13.738Z,12.00
2023-03-11T17:20:43.584Z,5.80
2023-03-11T17:23:10.750Z,8.73
2023-03-11T17:25:41.701Z,6.83
2023-03-11T17:28:09.477Z,5.47
2023-03-11T17:30:37.770Z,7.73
2023-03-11T17:33:05.216Z,5.53
2023-03-11T17:35:32.348Z,5.30
2023-03-11T17:37:59.389Z,9.50
2023-03-11T17:40:27.181Z,6.23
2023-03-11T17:42:54.199Z,7.47
2023-03-11T17:45:21.248Z,6.80
2023-03-11T17:47:48.256Z,6.80
2023-03-11T17:50:15.513Z,6.87
2023-03-11T17:52:42.548Z,7.70
2023-03-11T17:55:10.231Z,6.60
2023-03-11T17:57:45.152Z,5.27
2023-03-11T18:00:14.985Z,5.50
2023-03-11T18:02:42.439Z,6.63
2023-03-11T18:05:09.745Z,7.80
2023-03-11T18:07:40.981Z,6.20
2023-03-11T18:10:10.605Z,8.00
2023-03-11T18:12:39.297Z,4.20
2023-03-11T18:15:11.976Z,10.10
2023-03-11T18:17:39.118Z,8.80
2023-03-11T18:20:06.877Z,7.10
2023-03-11T18:22:35.369Z,5.67
2023-03-11T18:25:02.937Z,6.67
2023-03-11T18:27:30.196Z,8.80
2023-03-11T18:29:57.329Z,15.23
2023-03-11T18:32:24.785Z,7.50
2023-03-11T18:34:52.445Z,5.77
2023-03-11T18:37:19.841Z,6.17
2023-03-11T18:39:46.898Z,6.90
2023-03-11T18:42:16.140Z,9.07
2023-03-11T18:44:44.466Z,4.80
2023-03-11T18:47:11.682Z,9.43
2023-03-11T18:49:39.173Z,11.13
2023-03-11T18:52:06.207Z,7.93
2023-03-11T18:54:33.312Z,9.20
2023-03-11T18:57:00.299Z,6.30
2023-03-11T18:59:27.925Z,7.97
2023-03-11T19:01:55.189Z,8.03
2023-03-11T19:04:22.423Z,4.40
2023-03-11T19:06:50.354Z,5.70
2023-03-11T19:09:21.316Z,7.07
2023-03-11T19:11:48.485Z,4.47
2023-03-11T19:14:15.977Z,5.37
2023-03-11T19:16:43.513Z,7.67
2023-03-11T19:19:11.985Z,4.17
2023-03-11T19:21:39.427Z,4.70
2023-03-11T19:24:06.801Z,6.20
2023-03-11T19:26:44.778Z,6.60
2023-03-11T19:29:14.110Z,4.23
2023-03-11T19:31:41.626Z,4.90
2023-03-11T19:34:08.710Z,8.23
2023-03-11T19:36:35.770Z,6.07
2023-03-11T19:39:03.436Z,4.57
2023-03-11T19:41:30.542Z,6.53
2023-03-11T19:43:57.588Z,6.10
2023-03-11T19:46:24.837Z,5.90
2023-03-11T19:48:56.656Z,7.03
2023-03-11T19:51:25.304Z,7.47
2023-03-11T19:53:53.856Z,4.63
2023-03-11T19:56:21.032Z,5.50
2023-03-11T19:58:49.463Z,8.70
2023-03-11T20:01:21.855Z,7.17
2023-03-11T20:03:49.043Z,7.37
2023-03-11T20:06:18.497Z,9.23
2023-03-11T20:08:45.685Z,5.17
2023-03-11T20:11:13.143Z,9.80
2023-03-11T20:13:42.697Z,7.30
2023-03-11T20:16:18.657Z,6.07
2023-03-11T20:18:50.204Z,7.17
2023-03-11T20:21:17.809Z,7.07
2023-03-11T20:23:45.107Z,9.97
2023-03-11T20:26:15.415Z,7.23
2023-03-11T20:28:42.843Z,7.03
2023-03-11T20:31:11.206Z,7.93
2023-03-11T20:33:39.000Z,6.43
2023-03-11T20:36:13.588Z,9.30
2023-03-11T20:38:41.882Z,8.07
2023-03-11T20:41:10.175Z,7.43
2023-03-11T20:43:38.107Z,6.97
2023-03-11T20:46:06.807Z,8.83
2023-03-11T20:48:34.970Z,10.00
2023-03-11T20:51:19.508Z,5.73
2023-03-11T20:53:47.892Z,7.40
2023-03-11T20:56:19.020Z,9.23
2023-03-11T20:58:48.783Z,6.47
2023-03-11T21:01:28.969Z,10.90
2023-03-11T21:04:00.564Z,9.37
2023-03-11T21:06:34.964Z,9.37
2023-03-11T21:09:06.281Z,9.40
2023-03-11T21:11:34.450Z,8.23
2023-03-11T21:14:01.617Z,10.30
2023-03-11T21:16:29.183Z,10.37
2023-03-11T21:18:56.873Z,8.07
2023-03-11T21:21:24.302Z,11.23
2023-03-11T21:23:51.347Z,9.40
2023-03-11T21:26:20.119Z,7.13
2023-03-11T21:28:47.714Z,11.57
2023-03-11T21:31:20.974Z,9.03
2023-03-11T21:33:48.385Z,12.03
2023-03-11T21:36:18.268Z,8.80
2023-03-11T21:38:47.004Z,10.20
2023-03-11T21:41:27.083Z,9.73
2023-03-11T21:43:57.168Z,10.20
2023-03-11T21:46:29.546Z,9.60
2023-03-11T21:48:56.787Z,9.93
2023-03-11T21:51:25.279Z,9.47
2023-03-11T21:53:52.716Z,10.20
2023-03-11T21:56:20.340Z,9.23
2023-03-11T21:58:47.698Z,7.60
2023-03-11T22:01:15.939Z,9.20
2023-03-11T22:03:43.934Z,8.80
2023-03-11T22:06:13.157Z,8.97
2023-03-11T22:08:42.412Z,9.93
2023-03-11T22:11:17.595Z,9.23
2023-03-11T22:13:51.322Z,7.70
2023-03-11T22:16:20.123Z,8.63
2023-03-11T22:18:48.135Z,9.33
2023-03-11T22:21:16.527Z,9.43
2023-03-11T22:23:44.639Z,9.93
2023-03-11T22:26:11.871Z,8.77
2023-03-11T22:28:38.920Z,9.03
2023-03-11T22:31:12.450Z,16.37
2023-03-11T22:33:40.154Z,9.90
2023-03-11T22:36:09.405Z,10.93
2023-03-11T22:38:37.088Z,9.20
2023-03-11T22:41:07.666Z,11.20
2023-03-11T22:43:37.220Z,11.10
2023-03-11T22:46:05.976Z,8.70
2023-03-11T22:48:34.209Z,8.77
2023-03-11T22:51:02.108Z,10.27
2023-03-11T22:53:29.230Z,10.83
2023-03-11T22:55:56.263Z,7.57
2023-03-11T22:58:23.343Z,8.83
2023-03-11T23:00:50.554Z,7.10
2023-03-11T23:03:17.697Z,6.53
2023-03-11T23:05:46.620Z,10.00
2023-03-11T23:08:16.741Z,9.07
2023-03-11T23:10:45.868Z,8.33
2023-03-11T23:13:13.718Z,9.33
2023-03-11T23:15:43.365Z,9.30
2023-03-11T23:18:12.089Z,7.67
2023-03-11T23:20:41.593Z,7.67
2023-03-11T23:23:10.098Z,8.53
2023-03-11T23:25:38.245Z,8.10
2023-03-11T23:28:06.307Z,7.00
2023-03-11T23:30:33.535Z,6.60
2023-03-11T23:33:02.836Z,8.00
2023-03-11T23:35:31.197Z,9.93
2023-03-11T23:37:58.364Z,9.63
2023-03-11T23:40:26.067Z,7.97
2023-03-11T23:42:53.186Z,8.53
2023-03-11T23:45:20.231Z,6.93
2023-03-11T23:47:47.281Z,8.43
2023-03-11T23:50:14.351Z,9.53
2023-03-11T23:52:41.476Z,8.67
2023-03-11T23:55:09.686Z,7.93
2023-03-11T23:57:37.160Z,7.77
